sensor_id;sensor_type;location;lat;lon;timestamp;P1;durP1;ratioP1;P2;durP2;ratioP2
56405;SDS011;42305;51.444;-2.584;2022-07-29T00:00:00;2.60;;;2.60;;
56405;SDS011;42305;51.444;-2.584;2022-07-29T00:02:27;2.30;;;2.30;;
56405;SDS011;42305;51.444;-2.584;2022-07-29T00:04:53;2.45;;;2.45;;
56405;SDS011;42305;51.444;-2.584;2022-07-29T00:07:20;2.53;;;2.53;;
56405;SDS011;42305;51.444;-2.584;2022-07-29T00:09:46;2.20;;;2.20;;
56405;SDS011;42305;51.444;-2.584;2022-07-29T00:12:12;2.60;;;2.60;;
56405;SDS011;42305;51.444;-2.584;2022-07-29T00:14:38;2.40;;;2.40;;
56405;SDS011;42305;51.444;-2.584;2022-07-29T00:17:04;2.80;;;2.80;;
56405;SDS011;42305;51.444;-2.584;2022-07-29T00:19:30;3.53;;;3.42;;
56405;SDS011;42305;51.444;-2.584;2022-07-29T00:21:56;2.42;;;2.42;;
56405;SDS011;42305;51.444;-2.584;2022-07-29T00:24:22;2.80;;;2.80;;
56405;SDS011;42305;51.444;-2.584;2022-07-29T00:26:48;2.60;;;2.60;;
56405;SDS011;42305;51.444;-2.584;2022-07-29T00:29:14;2.60;;;2.60;;
56405;SDS011;42305;51.444;-2.584;2022-07-29T00:31:40;2.22;;;2.22;;
56405;SDS011;42305;51.444;-2.584;2022-07-29T00:34:06;3.40;;;3.30;;
56405;SDS011;42305;51.444;-2.584;2022-07-29T00:36:52;2.50;;;2.50;;
56405;SDS011;42305;51.444;-2.584;2022-07-29T00:39:18;2.42;;;2.42;;
56405;SDS011;42305;51.444;-2.584;2022-07-29T00:41:44;2.53;;;2.53;;
56405;SDS011;42305;51.444;-2.584;2022-07-29T00:44:10;2.80;;;2.80;;
56405;SDS011;42305;51.444;-2.584;2022-07-29T00:46:36;2.20;;;2.20;;
56405;SDS011;42305;51.444;-2.584;2022-07-29T00:49:02;2.70;;;2.70;;
56405;SDS011;42305;51.444;-2.584;2022-07-29T00:51:28;2.90;;;2.90;;
56405;SDS011;42305;51.444;-2.584;2022-07-29T00:53:55;2.33;;;2.33;;
56405;SDS011;42305;51.444;-2.584;2022-07-29T00:56:21;2.80;;;2.80;;
56405;SDS011;42305;51.444;-2.584;2022-07-29T00:58:48;3.30;;;3.22;;
56405;SDS011;42305;51.444;-2.584;2022-07-29T01:01:16;3.65;;;3.55;;
56405;SDS011;42305;51.444;-2.584;2022-07-29T01:03:43;2.65;;;2.65;;
56405;SDS011;42305;51.444;-2.584;2022-07-29T01:06:09;2.80;;;2.80;;
56405;SDS011;42305;51.444;-2.584;2022-07-29T01:08:35;2.50;;;2.50;;
56405;SDS011;42305;51.444;-2.584;2022-07-29T01:11:02;3.70;;;3.60;;
56405;SDS011;42305;51.444;-2.584;2022-07-29T01:13:29;3.40;;;3.30;;
56405;SDS011;42305;51.444;-2.584;2022-07-29T01:16:03;3.15;;;3.08;;
56405;SDS011;42305;51.444;-2.584;2022-07-29T01:18:37;2.50;;;2.50;;
56405;SDS011;42305;51.444;-2.584;2022-07-29T01:32:06;2.72;;;2.72;;
56405;SDS011;42305;51.444;-2.584;2022-07-29T01:34:21;3.05;;;3.05;;
56405;SDS011;42305;51.444;-2.584;2022-07-29T01:36:48;3.05;;;3.05;;
56405;SDS011;42305;51.444;-2.584;2022-07-29T01:39:22;2.70;;;2.70;;
56405;SDS011;42305;51.444;-2.584;2022-07-29T01:41:50;2.40;;;2.40;;
56405;SDS011;42305;51.444;-2.584;2022-07-29T01:44:20;2.63;;;2.63;;
56405;SDS011;42305;51.444;-2.584;2022-07-29T01:46:56;2.45;;;2.45;;
56405;SDS011;42305;51.444;-2.584;2022-07-29T01:49:31;2.80;;;2.80;;
56405;SDS011;42305;51.444;-2.584;2022-07-29T01:51:59;2.60;;;2.60;;
56405;SDS011;42305;51.444;-2.584;2022-07-29T01:54:27;2.63;;;2.63;;
56405;SDS011;42305;51.444;-2.584;2022-07-29T01:56:55;2.65;;;2.65;;
56405;SDS011;42305;51.444;-2.584;2022-07-29T01:59:22;2.65;;;2.65;;
56405;SDS011;42305;51.444;-2.584;2022-07-29T02:01:49;2.70;;;2.70;;
56405;SDS011;42305;51.444;-2.584;2022-07-29T02:04:16;2.40;;;2.40;;
56405;SDS011;42305;51.444;-2.584;2022-07-29T02:06:43;2.63;;;2.63;;
56405;SDS011;42305;51.444;-2.584;2022-07-29T02:09:10;2.60;;;2.60;;
56405;SDS011;42305;51.444;-2.584;2022-07-29T02:11:38;2.90;;;2.90;;
56405;SDS011;42305;51.444;-2.584;2022-07-29T02:14:05;2.90;;;2.90;;
56405;SDS011;42305;51.444;-2.584;2022-07-29T02:16:33;2.75;;;2.75;;
56405;SDS011;42305;51.444;-2.584;2022-07-29T02:19:01;2.78;;;2.78;;
56405;SDS011;42305;51.444;-2.584;2022-07-29T02:21:27;2.70;;;2.70;;
56405;SDS011;42305;51.444;-2.584;2022-07-29T02:23:53;3.10;;;3.10;;
56405;SDS011;42305;51.444;-2.584;2022-07-29T02:26:21;3.10;;;3.10;;
56405;SDS011;42305;51.444;-2.584;2022-07-29T02:28:49;2.80;;;2.80;;
56405;SDS011;42305;51.444;-2.584;2022-07-29T02:31:18;2.78;;;2.78;;
56405;SDS011;42305;51.444;-2.584;2022-07-29T02:33:44;3.30;;;3.30;;
56405;SDS011;42305;51.444;-2.584;2022-07-29T02:36:11;3.42;;;3.33;;
56405;SDS011;42305;51.444;-2.584;2022-07-29T02:38:37;3.00;;;3.00;;
56405;SDS011;42305;51.444;-2.584;2022-07-29T02:41:23;2.40;;;2.40;;
56405;SDS011;42305;51.444;-2.584;2022-07-29T02:43:55;3.63;;;3.53;;
56405;SDS011;42305;51.444;-2.584;2022-07-29T02:46:25;3.17;;;3.17;;
56405;SDS011;42305;51.444;-2.584;2022-07-29T02:48:55;2.97;;;2.97;;
56405;SDS011;42305;51.444;-2.584;2022-07-29T02:51:27;2.80;;;2.80;;
56405;SDS011;42305;51.444;-2.584;2022-07-29T02:53:56;2.70;;;2.70;;
56405;SDS011;42305;51.444;-2.584;2022-07-29T02:56:23;2.90;;;2.90;;
56405;SDS011;42305;51.444;-2.584;2022-07-29T02:58:53;3.03;;;3.03;;
56405;SDS011;42305;51.444;-2.584;2022-07-29T03:01:21;2.90;;;2.90;;
56405;SDS011;42305;51.444;-2.584;2022-07-29T03:03:48;3.10;;;3.10;;
56405;SDS011;42305;51.444;-2.584;2022-07-29T03:06:16;2.75;;;2.75;;
56405;SDS011;42305;51.444;-2.584;2022-07-29T03:08:43;2.92;;;2.92;;
56405;SDS011;42305;51.444;-2.584;2022-07-29T03:11:10;3.00;;;3.00;;
56405;SDS011;42305;51.444;-2.584;2022-07-29T03:13:37;3.50;;;3.40;;
56405;SDS011;42305;51.444;-2.584;2022-07-29T03:16:03;3.10;;;3.10;;
56405;SDS011;42305;51.444;-2.584;2022-07-29T03:18:30;2.90;;;2.90;;
56405;SDS011;42305;51.444;-2.584;2022-07-29T03:20:56;3.00;;;3.00;;
56405;SDS011;42305;51.444;-2.584;2022-07-29T03:23:23;2.70;;;2.70;;
56405;SDS011;42305;51.444;-2.584;2022-07-29T03:25:51;2.70;;;2.70;;
56405;SDS011;42305;51.444;-2.584;2022-07-29T03:28:17;3.05;;;3.05;;
56405;SDS011;42305;51.444;-2.584;2022-07-29T03:30:43;2.85;;;2.85;;
56405;SDS011;42305;51.444;-2.584;2022-07-29T03:33:09;3.40;;;3.30;;
56405;SDS011;42305;51.444;-2.584;2022-07-29T03:35:36;3.50;;;3.40;;
56405;SDS011;42305;51.444;-2.584;2022-07-29T03:38:02;2.80;;;2.80;;
56405;SDS011;42305;51.444;-2.584;2022-07-29T03:40:32;3.30;;;3.20;;
56405;SDS011;42305;51.444;-2.584;2022-07-29T03:42:59;2.47;;;2.47;;
56405;SDS011;42305;51.444;-2.584;2022-07-29T03:45:26;3.65;;;3.55;;
56405;SDS011;42305;51.444;-2.584;2022-07-29T03:47:54;3.03;;;3.03;;
56405;SDS011;42305;51.444;-2.584;2022-07-29T03:50:22;3.00;;;3.00;;
56405;SDS011;42305;51.444;-2.584;2022-07-29T03:52:48;2.70;;;2.70;;
56405;SDS011;42305;51.444;-2.584;2022-07-29T03:55:15;3.13;;;3.13;;
56405;SDS011;42305;51.444;-2.584;2022-07-29T03:57:42;3.45;;;3.38;;
56405;SDS011;42305;51.444;-2.584;2022-07-29T04:00:08;3.10;;;3.10;;
56405;SDS011;42305;51.444;-2.584;2022-07-29T04:02:35;3.00;;;3.00;;
56405;SDS011;42305;51.444;-2.584;2022-07-29T04:05:01;2.97;;;2.97;;
56405;SDS011;42305;51.444;-2.584;2022-07-29T04:07:27;3.22;;;3.22;;
56405;SDS011;42305;51.444;-2.584;2022-07-29T04:09:54;2.95;;;2.95;;
56405;SDS011;42305;51.444;-2.584;2022-07-29T04:12:20;3.85;;;3.67;;
56405;SDS011;42305;51.444;-2.584;2022-07-29T04:14:46;9.05;;;8.35;;
56405;SDS011;42305;51.444;-2.584;2022-07-29T04:17:13;3.60;;;3.50;;
56405;SDS011;42305;51.444;-2.584;2022-07-29T04:19:39;3.20;;;3.20;;
56405;SDS011;42305;51.444;-2.584;2022-07-29T04:22:05;3.00;;;3.00;;
56405;SDS011;42305;51.444;-2.584;2022-07-29T04:24:31;3.20;;;3.20;;
56405;SDS011;42305;51.444;-2.584;2022-07-29T04:26:57;3.30;;;3.30;;
56405;SDS011;42305;51.444;-2.584;2022-07-29T04:29:23;3.30;;;3.30;;
56405;SDS011;42305;51.444;-2.584;2022-07-29T04:31:50;3.10;;;3.10;;
56405;SDS011;42305;51.444;-2.584;2022-07-29T04:34:16;3.38;;;3.33;;
56405;SDS011;42305;51.444;-2.584;2022-07-29T04:36:42;3.13;;;3.13;;
56405;SDS011;42305;51.444;-2.584;2022-07-29T04:39:08;3.50;;;3.40;;
56405;SDS011;42305;51.444;-2.584;2022-07-29T04:41:35;3.50;;;3.40;;
56405;SDS011;42305;51.444;-2.584;2022-07-29T04:44:02;4.07;;;3.97;;
56405;SDS011;42305;51.444;-2.584;2022-07-29T04:46:31;3.35;;;3.30;;
56405;SDS011;42305;51.444;-2.584;2022-07-29T04:48:57;3.60;;;3.50;;
56405;SDS011;42305;51.444;-2.584;2022-07-29T04:51:23;3.40;;;3.30;;
56405;SDS011;42305;51.444;-2.584;2022-07-29T04:53:49;3.00;;;3.00;;
56405;SDS011;42305;51.444;-2.584;2022-07-29T04:56:15;3.28;;;3.25;;
56405;SDS011;42305;51.444;-2.584;2022-07-29T04:58:41;3.22;;;3.20;;
56405;SDS011;42305;51.444;-2.584;2022-07-29T05:01:07;2.97;;;2.97;;
56405;SDS011;42305;51.444;-2.584;2022-07-29T05:03:33;3.33;;;3.30;;
56405;SDS011;42305;51.444;-2.584;2022-07-29T05:05:59;3.13;;;3.13;;
56405;SDS011;42305;51.444;-2.584;2022-07-29T05:08:25;3.10;;;3.10;;
56405;SDS011;42305;51.444;-2.584;2022-07-29T05:10:52;3.08;;;3.08;;
56405;SDS011;42305;51.444;-2.584;2022-07-29T05:16:21;3.03;;;3.03;;
56405;SDS011;42305;51.444;-2.584;2022-07-29T05:18:47;3.15;;;3.15;;
56405;SDS011;42305;51.444;-2.584;2022-07-29T05:21:13;3.20;;;3.20;;
56405;SDS011;42305;51.444;-2.584;2022-07-29T05:23:39;3.00;;;3.00;;
56405;SDS011;42305;51.444;-2.584;2022-07-29T05:26:05;2.95;;;2.95;;
56405;SDS011;42305;51.444;-2.584;2022-07-29T05:28:34;3.17;;;3.17;;
56405;SDS011;42305;51.444;-2.584;2022-07-29T05:31:00;3.08;;;3.08;;
56405;SDS011;42305;51.444;-2.584;2022-07-29T05:33:27;2.92;;;2.92;;
56405;SDS011;42305;51.444;-2.584;2022-07-29T05:35:53;2.88;;;2.88;;
56405;SDS011;42305;51.444;-2.584;2022-07-29T05:38:19;2.90;;;2.90;;
56405;SDS011;42305;51.444;-2.584;2022-07-29T05:40:45;2.97;;;2.97;;
56405;SDS011;42305;51.444;-2.584;2022-07-29T05:43:11;3.08;;;3.08;;
56405;SDS011;42305;51.444;-2.584;2022-07-29T05:45:38;3.25;;;3.25;;
56405;SDS011;42305;51.444;-2.584;2022-07-29T05:48:04;3.53;;;3.47;;
56405;SDS011;42305;51.444;-2.584;2022-07-29T05:50:30;3.08;;;3.08;;
56405;SDS011;42305;51.444;-2.584;2022-07-29T05:52:57;2.70;;;2.70;;
56405;SDS011;42305;51.444;-2.584;2022-07-29T05:55:23;2.80;;;2.80;;
56405;SDS011;42305;51.444;-2.584;2022-07-29T05:57:49;2.60;;;2.60;;
56405;SDS011;42305;51.444;-2.584;2022-07-29T06:00:15;3.03;;;3.03;;
56405;SDS011;42305;51.444;-2.584;2022-07-29T06:02:41;2.90;;;2.90;;
56405;SDS011;42305;51.444;-2.584;2022-07-29T06:05:07;3.00;;;3.00;;
56405;SDS011;42305;51.444;-2.584;2022-07-29T06:07:33;2.85;;;2.85;;
56405;SDS011;42305;51.444;-2.584;2022-07-29T06:09:59;2.90;;;2.90;;
56405;SDS011;42305;51.444;-2.584;2022-07-29T06:12:25;3.15;;;3.15;;
56405;SDS011;42305;51.444;-2.584;2022-07-29T06:14:51;6.78;;;6.47;;
56405;SDS011;42305;51.444;-2.584;2022-07-29T06:17:17;2.70;;;2.70;;
56405;SDS011;42305;51.444;-2.584;2022-07-29T06:19:43;2.45;;;2.45;;
56405;SDS011;42305;51.444;-2.584;2022-07-29T06:22:09;2.95;;;2.95;;
56405;SDS011;42305;51.444;-2.584;2022-07-29T06:24:36;2.88;;;2.88;;
56405;SDS011;42305;51.444;-2.584;2022-07-29T06:27:06;3.10;;;3.10;;
56405;SDS011;42305;51.444;-2.584;2022-07-29T06:29:32;3.00;;;3.00;;
56405;SDS011;42305;51.444;-2.584;2022-07-29T06:31:58;3.35;;;3.20;;
56405;SDS011;42305;51.444;-2.584;2022-07-29T06:34:24;3.00;;;3.00;;
56405;SDS011;42305;51.444;-2.584;2022-07-29T06:36:50;2.70;;;2.70;;
56405;SDS011;42305;51.444;-2.584;2022-07-29T06:39:17;2.50;;;2.50;;
56405;SDS011;42305;51.444;-2.584;2022-07-29T06:41:46;2.40;;;2.40;;
56405;SDS011;42305;51.444;-2.584;2022-07-29T06:44:13;2.80;;;2.80;;
56405;SDS011;42305;51.444;-2.584;2022-07-29T06:46:40;2.60;;;2.60;;
56405;SDS011;42305;51.444;-2.584;2022-07-29T06:49:06;2.50;;;2.50;;
56405;SDS011;42305;51.444;-2.584;2022-07-29T06:51:33;2.70;;;2.70;;
56405;SDS011;42305;51.444;-2.584;2022-07-29T06:53:59;2.72;;;2.72;;
56405;SDS011;42305;51.444;-2.584;2022-07-29T06:56:25;2.00;;;2.00;;
56405;SDS011;42305;51.444;-2.584;2022-07-29T06:58:52;3.10;;;3.00;;
56405;SDS011;42305;51.444;-2.584;2022-07-29T07:01:18;2.60;;;2.60;;
56405;SDS011;42305;51.444;-2.584;2022-07-29T07:03:44;2.50;;;2.50;;
56405;SDS011;42305;51.444;-2.584;2022-07-29T07:06:10;2.47;;;2.47;;
56405;SDS011;42305;51.444;-2.584;2022-07-29T07:08:36;2.60;;;2.60;;
56405;SDS011;42305;51.444;-2.584;2022-07-29T07:11:02;2.40;;;2.40;;
56405;SDS011;42305;51.444;-2.584;2022-07-29T07:13:29;2.30;;;2.30;;
56405;SDS011;42305;51.444;-2.584;2022-07-29T07:15:59;2.10;;;2.10;;
56405;SDS011;42305;51.444;-2.584;2022-07-29T07:18:25;2.60;;;2.60;;
56405;SDS011;42305;51.444;-2.584;2022-07-29T07:20:51;2.15;;;2.15;;
56405;SDS011;42305;51.444;-2.584;2022-07-29T07:23:17;2.30;;;2.30;;
56405;SDS011;42305;51.444;-2.584;2022-07-29T07:25:43;2.30;;;2.30;;
56405;SDS011;42305;51.444;-2.584;2022-07-29T07:28:10;2.42;;;2.42;;
56405;SDS011;42305;51.444;-2.584;2022-07-29T07:30:36;2.17;;;2.17;;
56405;SDS011;42305;51.444;-2.584;2022-07-29T07:33:02;2.05;;;2.05;;
56405;SDS011;42305;51.444;-2.584;2022-07-29T07:35:28;1.80;;;1.80;;
56405;SDS011;42305;51.444;-2.584;2022-07-29T07:37:55;2.17;;;2.17;;
56405;SDS011;42305;51.444;-2.584;2022-07-29T07:40:21;2.50;;;2.50;;
56405;SDS011;42305;51.444;-2.584;2022-07-29T07:42:47;1.90;;;1.90;;
56405;SDS011;42305;51.444;-2.584;2022-07-29T07:45:13;2.13;;;2.13;;
56405;SDS011;42305;51.444;-2.584;2022-07-29T07:47:39;1.80;;;1.80;;
56405;SDS011;42305;51.444;-2.584;2022-07-29T07:50:06;1.90;;;1.90;;
56405;SDS011;42305;51.444;-2.584;2022-07-29T07:52:32;1.50;;;1.50;;
56405;SDS011;42305;51.444;-2.584;2022-07-29T07:54:58;2.10;;;2.10;;
56405;SDS011;42305;51.444;-2.584;2022-07-29T07:57:24;1.90;;;1.90;;
56405;SDS011;42305;51.444;-2.584;2022-07-29T07:59:51;2.00;;;2.00;;
56405;SDS011;42305;51.444;-2.584;2022-07-29T08:02:17;1.70;;;1.70;;
56405;SDS011;42305;51.444;-2.584;2022-07-29T08:04:43;2.20;;;2.20;;
56405;SDS011;42305;51.444;-2.584;2022-07-29T08:07:09;1.90;;;1.90;;
56405;SDS011;42305;51.444;-2.584;2022-07-29T08:09:35;1.75;;;1.75;;
56405;SDS011;42305;51.444;-2.584;2022-07-29T08:12:01;2.00;;;2.00;;
56405;SDS011;42305;51.444;-2.584;2022-07-29T08:14:29;1.70;;;1.70;;
56405;SDS011;42305;51.444;-2.584;2022-07-29T08:16:56;2.00;;;2.00;;
56405;SDS011;42305;51.444;-2.584;2022-07-29T08:19:22;1.60;;;1.60;;
56405;SDS011;42305;51.444;-2.584;2022-07-29T08:21:48;1.60;;;1.60;;
56405;SDS011;42305;51.444;-2.584;2022-07-29T08:24:14;1.73;;;1.73;;
56405;SDS011;42305;51.444;-2.584;2022-07-29T08:30:02;1.80;;;1.80;;
56405;SDS011;42305;51.444;-2.584;2022-07-29T08:32:28;1.70;;;1.70;;
56405;SDS011;42305;51.444;-2.584;2022-07-29T08:34:56;1.80;;;1.80;;
56405;SDS011;42305;51.444;-2.584;2022-07-29T08:37:23;1.80;;;1.80;;
56405;SDS011;42305;51.444;-2.584;2022-07-29T08:39:49;1.65;;;1.65;;
56405;SDS011;42305;51.444;-2.584;2022-07-29T08:42:15;1.90;;;1.90;;
56405;SDS011;42305;51.444;-2.584;2022-07-29T08:44:42;1.42;;;1.42;;
56405;SDS011;42305;51.444;-2.584;2022-07-29T08:47:10;2.08;;;1.92;;
56405;SDS011;42305;51.444;-2.584;2022-07-29T08:49:39;2.47;;;2.30;;
56405;SDS011;42305;51.444;-2.584;2022-07-29T08:52:05;1.50;;;1.50;;
56405;SDS011;42305;51.444;-2.584;2022-07-29T08:54:32;1.50;;;1.50;;
56405;SDS011;42305;51.444;-2.584;2022-07-29T08:56:58;1.50;;;1.50;;
56405;SDS011;42305;51.444;-2.584;2022-07-29T08:59:25;1.60;;;1.60;;
56405;SDS011;42305;51.444;-2.584;2022-07-29T09:01:52;1.50;;;1.50;;
56405;SDS011;42305;51.444;-2.584;2022-07-29T09:04:19;2.45;;;2.28;;
56405;SDS011;42305;51.444;-2.584;2022-07-29T09:06:47;2.13;;;2.13;;
56405;SDS011;42305;51.444;-2.584;2022-07-29T09:09:13;1.73;;;1.73;;
56405;SDS011;42305;51.444;-2.584;2022-07-29T09:11:40;2.33;;;2.30;;
56405;SDS011;42305;51.444;-2.584;2022-07-29T09:14:06;1.35;;;1.35;;
56405;SDS011;42305;51.444;-2.584;2022-07-29T09:16:46;1.30;;;1.30;;
56405;SDS011;42305;51.444;-2.584;2022-07-29T09:19:23;1.40;;;1.40;;
56405;SDS011;42305;51.444;-2.584;2022-07-29T09:21:49;2.63;;;2.17;;
56405;SDS011;42305;51.444;-2.584;2022-07-29T09:24:26;1.30;;;1.30;;
56405;SDS011;42305;51.444;-2.584;2022-07-29T09:26:52;1.60;;;1.60;;
56405;SDS011;42305;51.444;-2.584;2022-07-29T09:29:19;2.35;;;2.28;;
56405;SDS011;42305;51.444;-2.584;2022-07-29T09:31:46;1.30;;;1.30;;
56405;SDS011;42305;51.444;-2.584;2022-07-29T09:34:13;1.20;;;1.20;;
56405;SDS011;42305;51.444;-2.584;2022-07-29T09:36:43;1.30;;;1.30;;
56405;SDS011;42305;51.444;-2.584;2022-07-29T09:39:10;1.10;;;1.10;;
56405;SDS011;42305;51.444;-2.584;2022-07-29T09:41:49;1.10;;;1.10;;
56405;SDS011;42305;51.444;-2.584;2022-07-29T09:44:18;1.40;;;1.40;;
56405;SDS011;42305;51.444;-2.584;2022-07-29T09:47:04;1.50;;;1.50;;
56405;SDS011;42305;51.444;-2.584;2022-07-29T09:49:49;1.50;;;1.50;;
56405;SDS011;42305;51.444;-2.584;2022-07-29T09:52:15;1.10;;;1.10;;
56405;SDS011;42305;51.444;-2.584;2022-07-29T09:54:41;1.30;;;1.30;;
56405;SDS011;42305;51.444;-2.584;2022-07-29T09:57:08;1.15;;;1.15;;
56405;SDS011;42305;51.444;-2.584;2022-07-29T09:59:37;1.70;;;1.70;;
56405;SDS011;42305;51.444;-2.584;2022-07-29T10:02:12;1.30;;;1.30;;
56405;SDS011;42305;51.444;-2.584;2022-07-29T10:04:42;3.35;;;2.33;;
56405;SDS011;42305;51.444;-2.584;2022-07-29T10:07:08;1.30;;;1.30;;
56405;SDS011;42305;51.444;-2.584;2022-07-29T10:09:35;1.35;;;1.35;;
56405;SDS011;42305;51.444;-2.584;2022-07-29T10:14:33;1.35;;;1.35;;
56405;SDS011;42305;51.444;-2.584;2022-07-29T10:17:00;7.43;;;4.63;;
56405;SDS011;42305;51.444;-2.584;2022-07-29T10:19:28;1.10;;;1.10;;
56405;SDS011;42305;51.444;-2.584;2022-07-29T10:21:55;1.40;;;1.40;;
56405;SDS011;42305;51.444;-2.584;2022-07-29T10:24:22;1.77;;;1.77;;
56405;SDS011;42305;51.444;-2.584;2022-07-29T10:26:48;1.15;;;1.15;;
56405;SDS011;42305;51.444;-2.584;2022-07-29T10:29:15;1.00;;;1.00;;
56405;SDS011;42305;51.444;-2.584;2022-07-29T10:31:48;1.58;;;1.48;;
56405;SDS011;42305;51.444;-2.584;2022-07-29T10:37:08;1.30;;;1.30;;
56405;SDS011;42305;51.444;-2.584;2022-07-29T10:42:48;1.15;;;1.15;;
56405;SDS011;42305;51.444;-2.584;2022-07-29T10:45:15;1.30;;;1.30;;
56405;SDS011;42305;51.444;-2.584;2022-07-29T10:47:42;1.35;;;1.35;;
56405;SDS011;42305;51.444;-2.584;2022-07-29T10:50:08;1.02;;;1.02;;
56405;SDS011;42305;51.444;-2.584;2022-07-29T10:55:30;1.00;;;1.00;;
56405;SDS011;42305;51.444;-2.584;2022-07-29T10:58:31;1.00;;;1.00;;
56405;SDS011;42305;51.444;-2.584;2022-07-29T11:00:51;0.90;;;0.90;;
56405;SDS011;42305;51.444;-2.584;2022-07-29T11:06:02;1.30;;;1.30;;
56405;SDS011;42305;51.444;-2.584;2022-07-29T11:08:28;1.00;;;1.00;;
56405;SDS011;42305;51.444;-2.584;2022-07-29T11:16:14;1.40;;;1.40;;
56405;SDS011;42305;51.444;-2.584;2022-07-29T11:21:34;1.27;;;1.27;;
56405;SDS011;42305;51.444;-2.584;2022-07-29T11:24:13;1.00;;;1.00;;
56405;SDS011;42305;51.444;-2.584;2022-07-29T11:26:40;2.63;;;1.17;;
56405;SDS011;42305;51.444;-2.584;2022-07-29T11:29:17;1.48;;;1.27;;
56405;SDS011;42305;51.444;-2.584;2022-07-29T11:31:45;1.10;;;1.10;;
56405;SDS011;42305;51.444;-2.584;2022-07-29T11:39:28;0.80;;;0.80;;
56405;SDS011;42305;51.444;-2.584;2022-07-29T11:42:19;1.00;;;1.00;;
56405;SDS011;42305;51.444;-2.584;2022-07-29T11:45:00;0.88;;;0.88;;
56405;SDS011;42305;51.444;-2.584;2022-07-29T11:47:27;0.70;;;0.70;;
56405;SDS011;42305;51.444;-2.584;2022-07-29T11:49:54;0.60;;;0.60;;
56405;SDS011;42305;51.444;-2.584;2022-07-29T11:52:22;1.13;;;1.13;;
56405;SDS011;42305;51.444;-2.584;2022-07-29T11:54:48;0.50;;;0.50;;
56405;SDS011;42305;51.444;-2.584;2022-07-29T11:57:15;0.40;;;0.40;;
56405;SDS011;42305;51.444;-2.584;2022-07-29T11:59:42;0.70;;;0.70;;
56405;SDS011;42305;51.444;-2.584;2022-07-29T12:02:09;0.50;;;0.50;;
56405;SDS011;42305;51.444;-2.584;2022-07-29T12:04:55;2.05;;;1.85;;
56405;SDS011;42305;51.444;-2.584;2022-07-29T12:07:29;1.65;;;0.57;;
56405;SDS011;42305;51.444;-2.584;2022-07-29T12:09:55;0.30;;;0.30;;
56405;SDS011;42305;51.444;-2.584;2022-07-29T12:12:21;0.20;;;0.20;;
56405;SDS011;42305;51.444;-2.584;2022-07-29T12:14:47;0.65;;;0.60;;
56405;SDS011;42305;51.444;-2.584;2022-07-29T12:20:01;0.10;;;0.10;;
56405;SDS011;42305;51.444;-2.584;2022-07-29T12:22:31;0.20;;;0.20;;
56405;SDS011;42305;51.444;-2.584;2022-07-29T12:25:01;0.10;;;0.10;;
56405;SDS011;42305;51.444;-2.584;2022-07-29T12:27:28;0.43;;;0.43;;
56405;SDS011;42305;51.444;-2.584;2022-07-29T12:29:57;0.10;;;0.10;;
56405;SDS011;42305;51.444;-2.584;2022-07-29T12:35:15;0.10;;;0.10;;
56405;SDS011;42305;51.444;-2.584;2022-07-29T12:37:42;0.10;;;0.10;;
56405;SDS011;42305;51.444;-2.584;2022-07-29T12:40:10;0.15;;;0.15;;
56405;SDS011;42305;51.444;-2.584;2022-07-29T12:42:36;0.28;;;0.28;;
56405;SDS011;42305;51.444;-2.584;2022-07-29T12:45:02;0.20;;;0.20;;
56405;SDS011;42305;51.444;-2.584;2022-07-29T12:47:29;0.10;;;0.10;;
56405;SDS011;42305;51.444;-2.584;2022-07-29T12:50:08;0.00;;;0.00;;
56405;SDS011;42305;51.444;-2.584;2022-07-29T12:52:34;0.00;;;0.00;;
56405;SDS011;42305;51.444;-2.584;2022-07-29T12:55:01;0.00;;;0.00;;
56405;SDS011;42305;51.444;-2.584;2022-07-29T12:57:27;0.00;;;0.00;;
56405;SDS011;42305;51.444;-2.584;2022-07-29T13:02:25;0.00;;;0.00;;
56405;SDS011;42305;51.444;-2.584;2022-07-29T13:04:55;0.00;;;0.00;;
56405;SDS011;42305;51.444;-2.584;2022-07-29T13:07:27;0.28;;;0.28;;
56405;SDS011;42305;51.444;-2.584;2022-07-29T13:09:54;0.40;;;0.40;;
56405;SDS011;42305;51.444;-2.584;2022-07-29T13:12:20;0.55;;;0.55;;
56405;SDS011;42305;51.444;-2.584;2022-07-29T13:14:48;0.08;;;0.08;;
56405;SDS011;42305;51.444;-2.584;2022-07-29T13:17:22;0.03;;;0.03;;
56405;SDS011;42305;51.444;-2.584;2022-07-29T13:19:49;0.57;;;0.20;;
56405;SDS011;42305;51.444;-2.584;2022-07-29T13:22:16;0.00;;;0.00;;
56405;SDS011;42305;51.444;-2.584;2022-07-29T13:27:13;0.00;;;0.00;;
56405;SDS011;42305;51.444;-2.584;2022-07-29T13:29:39;0.30;;;0.15;;
56405;SDS011;42305;51.444;-2.584;2022-07-29T13:32:05;0.25;;;0.20;;
56405;SDS011;42305;51.444;-2.584;2022-07-29T13:34:32;0.10;;;0.10;;
56405;SDS011;42305;51.444;-2.584;2022-07-29T13:36:58;0.00;;;0.00;;
56405;SDS011;42305;51.444;-2.584;2022-07-29T13:39:24;0.10;;;0.10;;
56405;SDS011;42305;51.444;-2.584;2022-07-29T13:41:50;0.00;;;0.00;;
56405;SDS011;42305;51.444;-2.584;2022-07-29T13:44:17;0.10;;;0.10;;
56405;SDS011;42305;51.444;-2.584;2022-07-29T13:46:43;0.00;;;0.00;;
56405;SDS011;42305;51.444;-2.584;2022-07-29T13:49:09;0.00;;;0.00;;
56405;SDS011;42305;51.444;-2.584;2022-07-29T13:51:36;0.00;;;0.00;;
56405;SDS011;42305;51.444;-2.584;2022-07-29T13:54:02;0.00;;;0.00;;
56405;SDS011;42305;51.444;-2.584;2022-07-29T13:56:29;0.00;;;0.00;;
56405;SDS011;42305;51.444;-2.584;2022-07-29T13:58:55;0.10;;;0.10;;
56405;SDS011;42305;51.444;-2.584;2022-07-29T14:01:22;0.20;;;0.20;;
56405;SDS011;42305;51.444;-2.584;2022-07-29T14:03:48;0.00;;;0.00;;
56405;SDS011;42305;51.444;-2.584;2022-07-29T14:06:14;0.15;;;0.10;;
56405;SDS011;42305;51.444;-2.584;2022-07-29T14:08:40;0.00;;;0.00;;
56405;SDS011;42305;51.444;-2.584;2022-07-29T14:11:06;0.00;;;0.00;;
56405;SDS011;42305;51.444;-2.584;2022-07-29T14:13:32;0.00;;;0.00;;
56405;SDS011;42305;51.444;-2.584;2022-07-29T14:15:58;0.00;;;0.00;;
56405;SDS011;42305;51.444;-2.584;2022-07-29T14:18:24;0.00;;;0.00;;
56405;SDS011;42305;51.444;-2.584;2022-07-29T14:20:50;0.28;;;0.17;;
56405;SDS011;42305;51.444;-2.584;2022-07-29T14:23:17;0.00;;;0.00;;
56405;SDS011;42305;51.444;-2.584;2022-07-29T14:25:43;0.03;;;0.03;;
56405;SDS011;42305;51.444;-2.584;2022-07-29T14:28:10;0.00;;;0.00;;
56405;SDS011;42305;51.444;-2.584;2022-07-29T14:30:36;0.00;;;0.00;;
56405;SDS011;42305;51.444;-2.584;2022-07-29T14:33:02;0.20;;;0.20;;
56405;SDS011;42305;51.444;-2.584;2022-07-29T14:35:28;0.05;;;0.00;;
56405;SDS011;42305;51.444;-2.584;2022-07-29T14:37:55;0.00;;;0.00;;
56405;SDS011;42305;51.444;-2.584;2022-07-29T14:40:21;0.80;;;0.10;;
56405;SDS011;42305;51.444;-2.584;2022-07-29T14:42:47;0.00;;;0.00;;
56405;SDS011;42305;51.444;-2.584;2022-07-29T14:45:13;0.10;;;0.10;;
56405;SDS011;42305;51.444;-2.584;2022-07-29T14:47:41;0.00;;;0.00;;
56405;SDS011;42305;51.444;-2.584;2022-07-29T14:50:07;9.30;;;2.17;;
56405;SDS011;42305;51.444;-2.584;2022-07-29T14:52:34;0.22;;;0.22;;
56405;SDS011;42305;51.444;-2.584;2022-07-29T14:55:00;0.20;;;0.17;;
56405;SDS011;42305;51.444;-2.584;2022-07-29T14:57:28;0.10;;;0.10;;
56405;SDS011;42305;51.444;-2.584;2022-07-29T14:59:54;0.00;;;0.00;;
56405;SDS011;42305;51.444;-2.584;2022-07-29T15:02:20;0.82;;;0.82;;
56405;SDS011;42305;51.444;-2.584;2022-07-29T15:04:46;0.75;;;0.75;;
56405;SDS011;42305;51.444;-2.584;2022-07-29T15:07:13;0.35;;;0.35;;
56405;SDS011;42305;51.444;-2.584;2022-07-29T15:09:39;0.35;;;0.35;;
56405;SDS011;42305;51.444;-2.584;2022-07-29T15:12:06;1.17;;;0.50;;
56405;SDS011;42305;51.444;-2.584;2022-07-29T15:14:32;1.00;;;0.75;;
56405;SDS011;42305;51.444;-2.584;2022-07-29T15:19:28;3.92;;;0.40;;
56405;SDS011;42305;51.444;-2.584;2022-07-29T15:21:54;0.35;;;0.35;;
56405;SDS011;42305;51.444;-2.584;2022-07-29T15:24:20;0.60;;;0.60;;
56405;SDS011;42305;51.444;-2.584;2022-07-29T15:26:46;1.23;;;0.82;;
56405;SDS011;42305;51.444;-2.584;2022-07-29T15:29:12;0.20;;;0.20;;
56405;SDS011;42305;51.444;-2.584;2022-07-29T15:31:39;0.68;;;0.68;;